Time;durP1;ratioP1;P1;durP2;ratioP2;P2;SDS_P1;SDS_P2;PMS_P1;PMS_P2;Temp;Humidity;BMP_temperature;BMP_pressure;BME280_temperature;BME280_humidity;BME280_pressure;Samples;Min_cycle;Max_cycle;Signal;HPM_P1;HPM_P2
2022/08/22 00:02:35;;;;;;;;;;;12.20;99.90;;;;;;5048235;28;19951;-75
2022/08/22 00:05:18;;;;;;;;;;;12.10;99.90;;;;;;5053122;28;19920;-75
2022/08/22 00:07:53;;;;;;;;;;;12.10;99.90;;;;;;5053325;28;19920;-74
2022/08/22 00:10:23;;;;;;;;;;;12.10;99.90;;;;;;5053057;28;19917;-74
2022/08/22 00:13:04;;;;;;;;;;;12.00;99.90;;;;;;5052990;28;19963;-74
2022/08/22 00:15:41;;;;;;;;;;;12.00;99.90;;;;;;5048140;28;19908;-74
2022/08/22 00:18:14;;;;;;;;;;;12.00;99.90;;;;;;5058001;28;20377;-75
2022/08/22 00:20:47;;;;;;;;;;;11.90;99.90;;;;;;5053043;28;20359;-74
2022/08/22 00:23:32;;;;;;;;;;;11.90;99.90;;;;;;5051383;28;19909;-74
2022/08/22 00:26:01;;;;;;;;;;;11.80;99.90;;;;;;5046657;28;20370;-74
2022/08/22 00:28:30;;;;;;;;;;;11.80;99.90;;;;;;5047022;28;19920;-73
2022/08/22 00:30:55;;;;;;;;;;;11.90;99.90;;;;;;5052711;28;19908;-73
2022/08/22 00:33:31;;;;;;;;;;;12.00;99.90;;;;;;5052375;28;20263;-74
2022/08/22 00:36:16;;;;;;;;;;;11.90;99.90;;;;;;5052796;28;19967;-75
2022/08/22 00:39:01;;;;;;;;;;;11.90;99.90;;;;;;5052525;28;20435;-73
2022/08/22 00:41:42;;;;;;;;;;;12.00;99.90;;;;;;5052574;28;19915;-76
2022/08/22 00:44:27;;;;;;;;;;;12.20;99.90;;;;;;5052292;28;19909;-74
2022/08/22 00:47:12;;;;;;;;;;;12.30;99.90;;;;;;5049759;28;19956;-74
2022/08/22 00:49:47;;;;;;;;;;;12.50;99.90;;;;;;5051306;28;19909;-74
2022/08/22 00:52:21;;;;;;;;;;;12.60;99.90;;;;;;5046415;28;19909;-74
2022/08/22 00:54:49;;;;;;;;;;;12.60;99.90;;;;;;5052117;28;20619;-74
2022/08/22 00:57:29;;;;;;;;;;;12.60;99.90;;;;;;5052287;28;20298;-74
2022/08/22 01:00:19;;;;;;;;;;;12.50;99.90;;;;;;5052364;28;20340;-76
2022/08/22 01:02:53;;;;;;;;;;;12.30;99.90;;;;;;5051984;28;19913;-74
2022/08/22 01:05:22;;;;;;;;;;;12.30;99.90;;;;;;5046301;28;19963;-77
2022/08/22 01:08:02;;;;;;;;;;;12.20;99.90;;;;;;5052212;28;19909;-75
2022/08/22 01:10:40;;;;;;;;;;;12.10;99.90;;;;;;5051944;28;19920;-74
2022/08/22 01:13:21;;;;;;;;;;;12.20;99.90;;;;;;5047610;28;20325;-74
2022/08/22 01:15:49;;;;;;;;;;;12.10;99.90;;;;;;5051980;28;20361;-74
2022/08/22 01:18:16;;;;;;;;;;;12.00;99.90;;;;;;5054926;28;20219;-74
2022/08/22 01:20:41;;;;;;;;;;;12.00;99.90;;;;;;5051777;28;20424;-75
2022/08/22 01:23:10;;;;;;;;;;;12.00;99.90;;;;;;5051808;28;19909;-74
2022/08/22 01:25:36;;;;;;;;;;;12.10;99.90;;;;;;5051647;28;19909;-76
2022/08/22 01:28:10;;;;;;;;;;;12.00;99.90;;;;;;5051875;28;20459;-74
2022/08/22 01:30:54;;;;;;;;;;;12.10;99.90;;;;;;5052056;28;19909;-74
2022/08/22 01:33:37;;;;;;;;;;;12.00;99.90;;;;;;5046973;28;19966;-77
2022/08/22 01:36:05;;;;;;;;;;;12.00;99.90;;;;;;5051824;28;20351;-74
2022/08/22 01:38:33;;;;;;;;;;;11.90;99.90;;;;;;5051125;28;19909;-75
2022/08/22 01:41:11;;;;;;;;;;;11.80;99.90;;;;;;5051270;28;19936;-74
2022/08/22 01:43:46;;;;;;;;;;;11.80;99.90;;;;;;5051113;28;20362;-74
2022/08/22 01:46:21;;;;;;;;;;;11.80;99.90;;;;;;5052427;28;19909;-74
2022/08/22 01:48:51;;;;;;;;;;;12.00;99.90;;;;;;5051040;28;19961;-74
2022/08/22 01:51:20;;;;;;;;;;;12.00;99.90;;;;;;5051273;28;20420;-74
2022/08/22 01:53:57;;;;;;;;;;;12.00;99.90;;;;;;5050960;28;19912;-74
2022/08/22 01:56:24;;;;;;;;;;;12.00;99.90;;;;;;5051244;28;20000;-75
2022/08/22 01:59:10;;;;;;;;;;;12.00;99.90;;;;;;5049784;28;19952;-74
2022/08/22 02:01:48;;;;;;;;;;;12.00;99.90;;;;;;5049731;28;19909;-74
2022/08/22 02:04:33;;;;;;;;;;;11.90;99.90;;;;;;5044772;28;20312;-74
2022/08/22 02:07:13;;;;;;;;;;;11.70;99.90;;;;;;5050487;28;19935;-75
2022/08/22 02:09:57;;;;;;;;;;;11.80;99.90;;;;;;5050689;28;19983;-75
2022/08/22 02:12:30;;;;;;;;;;;11.60;99.90;;;;;;5050861;28;20351;-74
2022/08/22 02:14:55;;;;;;;;;;;11.80;99.90;;;;;;5039722;28;19913;-74
2022/08/22 02:17:24;;;;;;;;;;;11.70;99.90;;;;;;5054005;28;20000;-76
2022/08/22 02:20:00;;;;;;;;;;;11.60;99.90;;;;;;5050868;28;19909;-74
2022/08/22 02:22:25;;;;;;;;;;;11.60;99.90;;;;;;5050848;28;19908;-74
2022/08/22 02:25:17;;;;;;;;;;;11.70;99.90;;;;;;5050751;28;19909;-76
2022/08/22 02:27:48;;;;;;;;;;;11.70;99.90;;;;;;5050982;28;19909;-74
2022/08/22 02:30:16;;;;;;;;;;;11.80;99.90;;;;;;5050917;28;20432;-74
2022/08/22 02:32:49;;;;;;;;;;;11.80;99.90;;;;;;5054729;28;20389;-74
2022/08/22 02:35:24;;;;;;;;;;;11.80;99.90;;;;;;5054677;28;19931;-74
2022/08/22 02:37:57;;;;;;;;;;;11.80;99.90;;;;;;5054803;28;19909;-74
2022/08/22 02:40:26;;;;;;;;;;;11.70;99.90;;;;;;5054715;28;19909;-74
2022/08/22 02:43:00;;;;;;;;;;;11.50;99.90;;;;;;5054369;28;20358;-75
2022/08/22 02:45:45;;;;;;;;;;;11.40;99.90;;;;;;5048867;28;19913;-75
2022/08/22 02:48:25;;;;;;;;;;;11.30;99.90;;;;;;5051186;28;20361;-74
2022/08/22 02:50:55;;;;;;;;;;;11.30;99.90;;;;;;5045446;28;19915;-75
2022/08/22 02:53:31;;;;;;;;;;;11.40;99.90;;;;;;5050229;28;19920;-73
2022/08/22 02:56:07;;;;;;;;;;;11.50;99.90;;;;;;5052637;28;19913;-74
2022/08/22 02:58:39;;;;;;;;;;;11.50;99.90;;;;;;5052766;28;20376;-74
2022/08/22 03:01:08;;;;;;;;;;;11.50;99.90;;;;;;5053838;28;19913;-74
2022/08/22 03:03:38;;;;;;;;;;;11.30;99.90;;;;;;5054144;28;20293;-74
2022/08/22 03:06:06;;;;;;;;;;;11.10;99.90;;;;;;5054358;28;19952;-74
2022/08/22 03:08:34;;;;;;;;;;;11.00;99.90;;;;;;5054146;28;20357;-74
2022/08/22 03:11:06;;;;;;;;;;;11.00;99.90;;;;;;5054592;28;20277;-74
2022/08/22 03:13:46;;;;;;;;;;;11.00;99.90;;;;;;5053899;28;19913;-74
2022/08/22 03:16:15;;;;;;;;;;;11.00;99.90;;;;;;5053401;28;20241;-74
2022/08/22 03:18:59;;;;;;;;;;;10.90;99.90;;;;;;5047602;28;19997;-75
2022/08/22 03:21:39;;;;;;;;;;;10.90;99.90;;;;;;5053833;28;19920;-75
2022/08/22 03:24:05;;;;;;;;;;;10.80;99.90;;;;;;5052690;28;19916;-74
2022/08/22 03:26:35;;;;;;;;;;;10.80;99.90;;;;;;5053798;28;19955;-76
2022/08/22 03:29:24;;;;;;;;;;;10.80;99.90;;;;;;5052520;28;20000;-76
2022/08/22 03:32:04;;;;;;;;;;;10.80;99.90;;;;;;5053319;28;19932;-74
2022/08/22 03:34:30;;;;;;;;;;;10.70;99.90;;;;;;5053545;28;19920;-74
2022/08/22 03:37:06;;;;;;;;;;;10.70;99.90;;;;;;5053925;28;19908;-74
2022/08/22 03:39:43;;;;;;;;;;;10.70;99.90;;;;;;5053603;28;20424;-74
2022/08/22 03:42:16;;;;;;;;;;;10.60;99.90;;;;;;5053174;28;20381;-74
2022/08/22 03:45:05;;;;;;;;;;;10.60;99.90;;;;;;5051740;28;19916;-74
2022/08/22 03:47:37;;;;;;;;;;;10.50;99.90;;;;;;5056954;28;19908;-74
2022/08/22 03:50:02;;;;;;;;;;;10.50;99.90;;;;;;5053650;28;19916;-74
2022/08/22 03:55:40;;;;;;;;;;;10.50;99.90;;;;;;5053641;28;19982;-75
2022/08/22 03:58:24;;;;;;;;;;;10.40;99.90;;;;;;5053580;28;19909;-74
2022/08/22 04:01:09;;;;;;;;;;;10.30;99.90;;;;;;5053814;28;20273;-74
2022/08/22 04:03:51;;;;;;;;;;;10.40;99.90;;;;;;5053217;28;19912;-74
2022/08/22 04:06:30;;;;;;;;;;;10.30;99.90;;;;;;5053524;28;19916;-74
2022/08/22 04:08:55;;;;;;;;;;;10.20;99.90;;;;;;5053373;28;19921;-74
2022/08/22 04:11:33;;;;;;;;;;;10.10;99.90;;;;;;5053369;28;19916;-74
2022/08/22 04:14:07;;;;;;;;;;;10.20;99.90;;;;;;5051709;28;19919;-74
2022/08/22 04:16:35;;;;;;;;;;;10.20;99.90;;;;;;5062084;28;20344;-74
2022/08/22 04:19:27;;;;;;;;;;;10.20;99.90;;;;;;5053224;28;20385;-74
2022/08/22 04:22:07;;;;;;;;;;;10.20;99.90;;;;;;5053525;28;20277;-74
2022/08/22 04:24:41;;;;;;;;;;;10.10;99.90;;;;;;5052800;28;19909;-74
2022/08/22 04:27:15;;;;;;;;;;;9.90;99.90;;;;;;5053082;28;19909;-74
2022/08/22 04:29:44;;;;;;;;;;;9.90;99.90;;;;;;5053038;28;19909;-74
2022/08/22 04:32:30;;;;;;;;;;;9.90;99.90;;;;;;5052706;28;19908;-74
2022/08/22 04:35:05;;;;;;;;;;;9.90;99.90;;;;;;5053133;28;19985;-74
2022/08/22 04:37:46;;;;;;;;;;;9.90;99.90;;;;;;5052944;28;19994;-74
2022/08/22 04:40:31;;;;;;;;;;;10.00;99.90;;;;;;5053359;28;20011;-74
2022/08/22 04:43:04;;;;;;;;;;;10.00;99.90;;;;;;5054388;28;19994;-74
2022/08/22 04:45:36;;;;;;;;;;;10.10;99.90;;;;;;5055381;28;19916;-75
2022/08/22 04:48:12;;;;;;;;;;;10.30;99.90;;;;;;5051281;28;20387;-75
2022/08/22 04:50:44;;;;;;;;;;;10.40;99.90;;;;;;5049464;28;20273;-75
2022/08/22 04:53:20;;;;;;;;;;;10.40;99.90;;;;;;5046335;28;19924;-75
2022/08/22 04:56:01;;;;;;;;;;;10.30;99.90;;;;;;5052283;28;19913;-75
2022/08/22 04:58:47;;;;;;;;;;;10.40;99.90;;;;;;5052340;28;19935;-75
2022/08/22 05:01:16;;;;;;;;;;;10.40;99.90;;;;;;5048001;28;19955;-75
2022/08/22 05:03:54;;;;;;;;;;;10.30;99.90;;;;;;5052512;28;19909;-75
2022/08/22 05:06:21;;;;;;;;;;;10.40;99.90;;;;;;5052679;28;19909;-74
2022/08/22 05:08:48;;;;;;;;;;;10.40;99.90;;;;;;5051944;28;19916;-74
2022/08/22 05:11:15;;;;;;;;;;;10.40;99.90;;;;;;5050765;28;19915;-73
2022/08/22 05:13:45;;;;;;;;;;;10.50;99.90;;;;;;5048476;28;19919;-74
2022/08/22 05:16:14;;;;;;;;;;;10.60;99.90;;;;;;5052367;28;20389;-75
2022/08/22 05:18:47;;;;;;;;;;;10.60;99.90;;;;;;5052518;28;19912;-74
2022/08/22 05:21:14;;;;;;;;;;;10.70;99.90;;;;;;5052186;28;19913;-75
2022/08/22 05:23:47;;;;;;;;;;;10.70;99.90;;;;;;5051983;28;20328;-75
2022/08/22 05:26:14;;;;;;;;;;;10.80;99.90;;;;;;5052141;28;19909;-75
2022/08/22 05:28:52;;;;;;;;;;;10.80;99.90;;;;;;5052211;28;20390;-75
2022/08/22 05:31:20;;;;;;;;;;;10.90;99.90;;;;;;5046173;28;20607;-76
2022/08/22 05:33:48;;;;;;;;;;;10.90;99.90;;;;;;5046062;28;20011;-75
2022/08/22 05:36:32;;;;;;;;;;;11.00;99.90;;;;;;5052663;28;19915;-75
2022/08/22 05:38:59;;;;;;;;;;;11.30;99.90;;;;;;5052520;28;19975;-75
2022/08/22 05:41:26;;;;;;;;;;;11.40;99.90;;;;;;5051856;28;20004;-75
2022/08/22 05:43:53;;;;;;;;;;;11.50;99.90;;;;;;5052402;28;19909;-74
2022/08/22 05:46:23;;;;;;;;;;;11.50;99.90;;;;;;5051653;28;20354;-74
2022/08/22 05:49:11;;;;;;;;;;;11.50;99.90;;;;;;5052928;28;20008;-75
2022/08/22 05:51:56;;;;;;;;;;;11.60;99.90;;;;;;5051691;28;19909;-75
2022/08/22 05:54:26;;;;;;;;;;;11.60;99.90;;;;;;5047021;28;20262;-76
2022/08/22 05:57:15;;;;;;;;;;;11.80;99.90;;;;;;5052375;28;19913;-74
2022/08/22 05:59:41;;;;;;;;;;;12.00;99.90;;;;;;5049880;28;20003;-74
2022/08/22 06:02:10;;;;;;;;;;;12.10;99.90;;;;;;5051125;28;19973;-75
2022/08/22 06:04:39;;;;;;;;;;;12.20;99.90;;;;;;5051321;28;19913;-73
2022/08/22 06:07:16;;;;;;;;;;;12.30;99.90;;;;;;5051528;28;19916;-72
2022/08/22 06:09:44;;;;;;;;;;;12.40;99.90;;;;;;5051681;28;20289;-73
2022/08/22 06:12:39;;;;;;;;;;;12.40;99.90;;;;;;5051426;28;19909;-75
2022/08/22 06:15:16;;;;;;;;;;;12.50;99.90;;;;;;5046426;28;19969;-74
2022/08/22 06:17:46;;;;;;;;;;;12.80;99.90;;;;;;5052147;28;20390;-74
2022/08/22 06:20:16;;;;;;;;;;;13.00;99.90;;;;;;5057470;28;19909;-74
2022/08/22 06:22:48;;;;;;;;;;;13.00;99.90;;;;;;5051354;28;19909;-75
2022/08/22 06:25:17;;;;;;;;;;;13.10;99.90;;;;;;5051442;28;19909;-74
2022/08/22 06:27:45;;;;;;;;;;;13.40;99.90;;;;;;5049384;28;19916;-75
2022/08/22 06:30:12;;;;;;;;;;;13.50;99.90;;;;;;5051104;28;19916;-74
2022/08/22 06:32:44;;;;;;;;;;;13.70;99.90;;;;;;5050950;28;19909;-75
2022/08/22 06:35:19;;;;;;;;;;;13.80;99.90;;;;;;5043311;28;19958;-74
2022/08/22 06:37:46;;;;;;;;;;;13.90;99.90;;;;;;5051169;28;19912;-74
2022/08/22 06:40:13;;;;;;;;;;;14.10;99.90;;;;;;5049763;28;20365;-74
2022/08/22 06:42:45;;;;;;;;;;;14.20;99.90;;;;;;5050922;28;19919;-74
2022/08/22 06:45:21;;;;;;;;;;;14.30;99.90;;;;;;5050503;28;19913;-72
2022/08/22 06:48:10;;;;;;;;;;;14.50;99.90;;;;;;5051073;28;19963;-73
2022/08/22 06:50:40;;;;;;;;;;;14.80;99.90;;;;;;5050298;28;20007;-74
2022/08/22 06:53:15;;;;;;;;;;;15.00;99.90;;;;;;5050373;28;20022;-74
2022/08/22 06:55:44;;;;;;;;;;;15.10;99.90;;;;;;5051127;28;19909;-74
2022/08/22 06:58:15;;;;;;;;;;;15.30;99.90;;;;;;5050991;28;19955;-74
2022/08/22 07:00:41;;;;;;;;;;;15.50;99.90;;;;;;5051012;28;19908;-74
2022/08/22 07:03:13;;;;;;;;;;;15.80;99.90;;;;;;5050452;28;19913;-74
2022/08/22 07:05:40;;;;;;;;;;;15.90;99.90;;;;;;5051085;28;19909;-74
2022/08/22 07:08:07;;;;;;;;;;;16.00;99.90;;;;;;5050822;28;19952;-74
2022/08/22 07:10:33;;;;;;;;;;;16.50;99.90;;;;;;5050763;28;20385;-75
2022/08/22 07:12:59;;;;;;;;;;;16.70;99.90;;;;;;5045280;28;19966;-74
2022/08/22 07:15:33;;;;;;;;;;;16.70;99.90;;;;;;5050161;28;19913;-74
2022/08/22 07:18:01;;;;;;;;;;;16.90;99.90;;;;;;5053320;28;19996;-74
2022/08/22 07:20:28;;;;;;;;;;;17.40;99.90;;;;;;5054283;28;19916;-74
2022/08/22 07:22:59;;;;;;;;;;;18.30;99.90;;;;;;5054340;28;19908;-74
2022/08/22 07:25:26;;;;;;;;;;;19.20;99.90;;;;;;5054096;28;20012;-74
2022/08/22 07:27:58;;;;;;;;;;;19.80;98.40;;;;;;5054323;28;20420;-74
2022/08/22 07:30:33;;;;;;;;;;;20.30;95.10;;;;;;5053958;28;19916;-74
2022/08/22 07:33:00;;;;;;;;;;;21.20;90.40;;;;;;5049709;28;19908;-74
2022/08/22 07:35:32;;;;;;;;;;;21.40;90.00;;;;;;5058423;28;19948;-74
2022/08/22 07:38:12;;;;;;;;;;;21.60;87.10;;;;;;5051966;28;19909;-74
2022/08/22 07:40:42;;;;;;;;;;;22.00;86.20;;;;;;5046596;28;19955;-74
2022/08/22 07:43:11;;;;;;;;;;;23.50;84.90;;;;;;5052378;28;19954;-74
2022/08/22 07:45:51;;;;;;;;;;;24.00;77.90;;;;;;5045218;28;19909;-74
2022/08/22 07:48:32;;;;;;;;;;;24.60;79.60;;;;;;5053144;28;20383;-73
2022/08/22 07:51:15;;;;;;;;;;;24.40;78.30;;;;;;5053232;28;19908;-74
2022/08/22 07:53:51;;;;;;;;;;;25.20;76.70;;;;;;5053028;28;19963;-74
2022/08/22 07:56:27;;;;;;;;;;;25.40;75.60;;;;;;5053534;28;19909;-75
2022/08/22 07:58:59;;;;;;;;;;;26.20;71.10;;;;;;5053342;28;19909;-74
2022/08/22 08:01:25;;;;;;;;;;;25.90;69.20;;;;;;5050821;28;20039;-75
2022/08/22 08:03:53;;;;;;;;;;;25.50;69.00;;;;;;5051257;28;20008;-75
2022/08/22 08:06:23;;;;;;;;;;;25.90;67.90;;;;;;5052006;28;20087;-74
2022/08/22 08:08:49;;;;;;;;;;;25.60;70.10;;;;;;5051875;28;19920;-74
2022/08/22 08:11:15;;;;;;;;;;;27.00;69.10;;;;;;5052919;28;19963;-74
2022/08/22 08:13:43;;;;;;;;;;;27.10;66.50;;;;;;5050811;28;19965;-74
2022/08/22 08:16:11;;;;;;;;;;;27.50;65.50;;;;;;5047454;28;19909;-75
2022/08/22 08:18:38;;;;;;;;;;;27.90;63.60;;;;;;5041822;28;19948;-75
2022/08/22 08:21:08;;;;;;;;;;;27.90;65.10;;;;;;5051022;28;20199;-76
2022/08/22 08:23:36;;;;;;;;;;;27.50;64.90;;;;;;5053878;28;19916;-76
2022/08/22 08:26:10;;;;;;;;;;;27.70;64.30;;;;;;5052639;28;19909;-74
2022/08/22 08:28:43;;;;;;;;;;;27.30;62.60;;;;;;5044914;28;19932;-74
2022/08/22 08:31:12;;;;;;;;;;;27.60;63.40;;;;;;5053720;28;19916;-75
2022/08/22 08:33:39;;;;;;;;;;;27.70;60.80;;;;;;5051855;28;19913;-74
2022/08/22 08:36:20;;;;;;;;;;;28.50;61.80;;;;;;5052781;28;19920;-75
2022/08/22 08:38:48;;;;;;;;;;;29.50;59.80;;;;;;5048857;28;19983;-75
2022/08/22 08:41:30;;;;;;;;;;;29.70;59.70;;;;;;5048660;28;19909;-73
2022/08/22 08:44:17;;;;;;;;;;;29.10;58.30;;;;;;5050657;28;19909;-73
2022/08/22 08:46:43;;;;;;;;;;;28.70;59.00;;;;;;5051184;28;19931;-75
2022/08/22 08:49:33;;;;;;;;;;;28.80;59.20;;;;;;5052161;28;20354;-74
2022/08/22 08:52:02;;;;;;;;;;;29.30;56.60;;;;;;5046831;28;19916;-75
2022/08/22 08:54:42;;;;;;;;;;;30.10;57.80;;;;;;5051756;28;19913;-75
2022/08/22 08:57:28;;;;;;;;;;;30.80;56.40;;;;;;5052216;28;19916;-75
2022/08/22 09:00:00;;;;;;;;;;;30.90;56.30;;;;;;5051409;28;19908;-75
2022/08/22 09:02:40;;;;;;;;;;;30.20;55.10;;;;;;5050591;28;19916;-75
2022/08/22 09:05:06;;;;;;;;;;;30.00;53.80;;;;;;5046447;28;19915;-76
2022/08/22 09:07:34;;;;;;;;;;;30.60;54.70;;;;;;5052295;28;20011;-75
2022/08/22 09:10:00;;;;;;;;;;;30.70;53.00;;;;;;5051680;28;20393;-75
2022/08/22 09:12:32;;;;;;;;;;;31.10;51.50;;;;;;5051331;28;19909;-75
2022/08/22 09:15:01;;;;;;;;;;;31.00;53.20;;;;;;5053142;28;20456;-74
2022/08/22 09:17:38;;;;;;;;;;;30.60;53.10;;;;;;5052668;28;19909;-74
2022/08/22 09:20:41;;;;;;;;;;;29.60;54.80;;;;;;5051807;28;19912;-74
2022/08/22 09:23:06;;;;;;;;;;;30.10;51.10;;;;;;5048481;28;20356;-75
2022/08/22 09:25:50;;;;;;;;;;;32.10;52.70;;;;;;5050704;28;19948;-75
2022/08/22 09:28:18;;;;;;;;;;;32.00;48.70;;;;;;5048666;28;19915;-75
2022/08/22 09:31:10;;;;;;;;;;;32.20;46.50;;;;;;5051696;28;19962;-75
2022/08/22 09:33:55;;;;;;;;;;;32.50;47.70;;;;;;5044583;28;19913;-75
2022/08/22 09:36:28;;;;;;;;;;;33.10;47.40;;;;;;5047542;28;19909;-75
2022/08/22 09:39:01;;;;;;;;;;;32.20;46.50;;;;;;5050228;28;20332;-73
2022/08/22 09:41:30;;;;;;;;;;;32.30;47.20;;;;;;5050503;28;19916;-75
2022/08/22 09:44:08;;;;;;;;;;;33.50;48.20;;;;;;5047416;28;19915;-74
2022/08/22 09:46:54;;;;;;;;;;;33.40;45.30;;;;;;5055855;28;19909;-74
2022/08/22 09:49:22;;;;;;;;;;;33.60;48.10;;;;;;5048357;28;20264;-75
2022/08/22 09:51:48;;;;;;;;;;;33.80;45.30;;;;;;5050910;28;19909;-74
2022/08/22 09:54:22;;;;;;;;;;;33.90;43.30;;;;;;5050510;28;20255;-75
2022/08/22 09:57:19;;;;;;;;;;;32.00;43.20;;;;;;5050938;28;19908;-75
2022/08/22 09:59:55;;;;;;;;;;;32.70;42.40;;;;;;5046695;28;19913;-75
2022/08/22 10:02:27;;;;;;;;;;;33.50;44.60;;;;;;5043793;28;19909;-75
2022/08/22 10:04:52;;;;;;;;;;;33.30;43.30;;;;;;5056287;28;19909;-75
2022/08/22 10:07:33;;;;;;;;;;;33.90;45.40;;;;;;5050804;28;20007;-74
2022/08/22 10:10:04;;;;;;;;;;;33.40;41.50;;;;;;5050582;28;19917;-75
2022/08/22 10:12:32;;;;;;;;;;;34.10;47.50;;;;;;5050729;28;19915;-73
2022/08/22 10:15:19;;;;;;;;;;;33.30;43.70;;;;;;5048766;28;19948;-74
2022/08/22 10:18:01;;;;;;;;;;;33.40;44.80;;;;;;5048558;28;20377;-74
2022/08/22 10:20:30;;;;;;;;;;;34.70;40.00;;;;;;5055155;28;19990;-75
2022/08/22 10:23:15;;;;;;;;;;;35.00;42.40;;;;;;5050780;28;20269;-76
2022/08/22 10:25:47;;;;;;;;;;;34.10;41.40;;;;;;5050801;28;19908;-76
2022/08/22 10:28:15;;;;;;;;;;;34.40;44.90;;;;;;5050876;28;20322;-76
2022/08/22 10:30:59;;;;;;;;;;;35.50;41.70;;;;;;5049340;28;20364;-75
2022/08/22 10:33:54;;;;;;;;;;;35.60;40.40;;;;;;5051818;28;19916;-75
2022/08/22 10:36:35;;;;;;;;;;;34.90;42.10;;;;;;5042457;28;20011;-75
2022/08/22 10:39:04;;;;;;;;;;;35.40;39.10;;;;;;5049361;28;19908;-74
2022/08/22 10:41:48;;;;;;;;;;;34.60;42.10;;;;;;5045477;28;19999;-75
2022/08/22 10:44:25;;;;;;;;;;;35.30;37.80;;;;;;5043608;28;19924;-74
2022/08/22 10:47:04;;;;;;;;;;;35.60;38.60;;;;;;5058266;28;20328;-73
2022/08/22 10:49:30;;;;;;;;;;;35.00;39.50;;;;;;5053237;28;20440;-74
2022/08/22 10:51:59;;;;;;;;;;;35.30;38.60;;;;;;5055400;28;20008;-75
2022/08/22 10:54:39;;;;;;;;;;;36.20;41.00;;;;;;5052851;28;19919;-75
2022/08/22 10:57:31;;;;;;;;;;;34.40;41.20;;;;;;5056216;28;20440;-76
2022/08/22 11:00:10;;;;;;;;;;;35.60;40.90;;;;;;5051101;28;19964;-73
2022/08/22 11:02:52;;;;;;;;;;;35.00;39.90;;;;;;5054174;28;19915;-75
2022/08/22 11:05:17;;;;;;;;;;;35.70;38.60;;;;;;5048044;28;19909;-75
2022/08/22 11:07:55;;;;;;;;;;;35.50;40.70;;;;;;5047910;28;20289;-75
2022/08/22 11:10:39;;;;;;;;;;;35.90;37.60;;;;;;5054561;28;20425;-75
2022/08/22 11:13:04;;;;;;;;;;;36.20;36.20;;;;;;5054275;28;19952;-75
2022/08/22 11:15:48;;;;;;;;;;;36.60;37.80;;;;;;5054790;28;19956;-75
2022/08/22 11:18:19;;;;;;;;;;;36.30;37.70;;;;;;5054788;28;20287;-74
2022/08/22 11:20:51;;;;;;;;;;;36.80;39.30;;;;;;5053840;28;19924;-75
2022/08/22 11:23:30;;;;;;;;;;;36.50;36.00;;;;;;5046118;28;20347;-75
2022/08/22 11:26:05;;;;;;;;;;;36.70;36.90;;;;;;5049046;28;20409;-75
2022/08/22 11:28:33;;;;;;;;;;;36.50;36.30;;;;;;5053447;28;19978;-75
2022/08/22 11:31:15;;;;;;;;;;;37.50;37.00;;;;;;5054592;28;20293;-75
2022/08/22 11:34:05;;;;;;;;;;;37.10;34.80;;;;;;5053904;28;19912;-75
2022/08/22 11:36:38;;;;;;;;;;;38.10;36.60;;;;;;5054149;28;19909;-75
2022/08/22 11:39:07;;;;;;;;;;;37.60;36.60;;;;;;5052241;28;19944;-75
2022/08/22 11:41:35;;;;;;;;;;;36.80;38.80;;;;;;5054018;28;19975;-74
2022/08/22 11:44:04;;;;;;;;;;;36.60;36.10;;;;;;5050827;28;19916;-74
2022/08/22 11:46:29;;;;;;;;;;;36.30;39.20;;;;;;5056744;28;19909;-74
2022/08/22 11:49:27;;;;;;;;;;;35.30;35.10;;;;;;5052089;28;19909;-74
2022/08/22 11:51:56;;;;;;;;;;;35.30;36.10;;;;;;5040756;28;19909;-74
2022/08/22 11:54:21;;;;;;;;;;;36.00;36.00;;;;;;5053599;28;20003;-74
2022/08/22 11:56:50;;;;;;;;;;;36.30;34.70;;;;;;5053366;28;19948;-74
2022/08/22 11:59:28;;;;;;;;;;;35.80;35.10;;;;;;5047102;28;19909;-74
2022/08/22 12:02:01;;;;;;;;;;;36.10;35.70;;;;;;5052484;28;19954;-74
2022/08/22 12:04:27;;;;;;;;;;;35.20;34.30;;;;;;5052659;28;19909;-74
2022/08/22 12:06:54;;;;;;;;;;;35.70;35.80;;;;;;5053072;28;20278;-74
2022/08/22 12:09:22;;;;;;;;;;;36.30;35.60;;;;;;5052560;28;19924;-74
2022/08/22 12:12:06;;;;;;;;;;;33.30;37.00;;;;;;5051618;28;20298;-74
2022/08/22 12:14:48;;;;;;;;;;;33.90;38.60;;;;;;5048282;28;19960;-74
2022/08/22 12:17:33;;;;;;;;;;;34.00;37.70;;;;;;5054270;28;19909;-74
2022/08/22 12:19:58;;;;;;;;;;;35.30;37.30;;;;;;5047912;28;19951;-74
2022/08/22 12:22:42;;;;;;;;;;;33.00;37.10;;;;;;5053310;28;20143;-74
2022/08/22 12:25:11;;;;;;;;;;;30.50;43.90;;;;;;5053093;28;19967;-74
2022/08/22 12:27:44;;;;;;;;;;;32.30;40.70;;;;;;5052728;28;19996;-74
2022/08/22 12:30:32;;;;;;;;;;;33.00;38.30;;;;;;5052636;28;20007;-74
2022/08/22 12:33:13;;;;;;;;;;;29.20;44.40;;;;;;5037411;28;19909;-74
2022/08/22 12:35:39;;;;;;;;;;;27.60;47.00;;;;;;5051848;28;19913;-74
2022/08/22 12:38:23;;;;;;;;;;;27.20;48.40;;;;;;5053480;28;20274;-74
2022/08/22 12:41:01;;;;;;;;;;;29.90;43.90;;;;;;5054575;28;20259;-73
2022/08/22 12:43:26;;;;;;;;;;;31.30;40.80;;;;;;5052487;28;20399;-74
2022/08/22 12:46:00;;;;;;;;;;;29.10;47.00;;;;;;5058120;28;20006;-73
2022/08/22 12:48:40;;;;;;;;;;;31.70;40.30;;;;;;5050016;28;20003;-74
2022/08/22 12:51:26;;;;;;;;;;;35.00;37.40;;;;;;5048295;28;19915;-73
2022/08/22 12:54:13;;;;;;;;;;;36.30;34.10;;;;;;5051120;28;20210;-74
2022/08/22 12:56:54;;;;;;;;;;;35.70;35.30;;;;;;5037844;28;20002;-74
2022/08/22 12:59:24;;;;;;;;;;;35.90;34.50;;;;;;5048544;28;19917;-73
2022/08/22 13:01:52;;;;;;;;;;;36.10;33.70;;;;;;5049785;28;20378;-73
2022/08/22 13:04:29;;;;;;;;;;;36.30;33.40;;;;;;5051728;28;19913;-73
2022/08/22 13:07:00;;;;;;;;;;;36.50;35.00;;;;;;5050722;28;20320;-74
2022/08/22 13:09:27;;;;;;;;;;;35.70;35.30;;;;;;5051712;28;19920;-74
2022/08/22 13:11:54;;;;;;;;;;;33.80;37.00;;;;;;5051786;28;19968;-73
2022/08/22 13:14:24;;;;;;;;;;;32.70;38.30;;;;;;5050997;28;20366;-74
2022/08/22 13:16:53;;;;;;;;;;;31.00;40.50;;;;;;5051779;28;19912;-74
2022/08/22 13:19:21;;;;;;;;;;;29.90;43.40;;;;;;5053981;28;19972;-74
2022/08/22 13:22:02;;;;;;;;;;;29.20;45.80;;;;;;5051270;28;19909;-74
2022/08/22 13:24:30;;;;;;;;;;;28.70;47.50;;;;;;5044840;28;19916;-74
2022/08/22 13:26:59;;;;;;;;;;;27.90;47.10;;;;;;5045430;28;19979;-74
2022/08/22 13:29:30;;;;;;;;;;;28.00;50.40;;;;;;5051742;28;19909;-75
2022/08/22 13:31:59;;;;;;;;;;;27.90;48.20;;;;;;5049560;28;19908;-75
2022/08/22 13:34:27;;;;;;;;;;;28.00;49.60;;;;;;5046192;28;20393;-74
2022/08/22 13:36:54;;;;;;;;;;;27.80;49.90;;;;;;5051371;28;19909;-74
2022/08/22 13:39:31;;;;;;;;;;;28.00;50.20;;;;;;5051440;28;19908;-74
2022/08/22 13:41:58;;;;;;;;;;;28.10;48.20;;;;;;5051222;28;19909;-74
2022/08/22 13:44:26;;;;;;;;;;;28.00;49.30;;;;;;5051221;28;19963;-74
2022/08/22 13:46:52;;;;;;;;;;;27.90;47.50;;;;;;5049447;28;19908;-74
2022/08/22 13:49:29;;;;;;;;;;;27.50;50.30;;;;;;5047947;28;19909;-74
2022/08/22 13:52:01;;;;;;;;;;;27.50;52.50;;;;;;5051013;28;19932;-74
2022/08/22 13:54:39;;;;;;;;;;;27.00;48.90;;;;;;5051023;28;20039;-74
2022/08/22 13:57:08;;;;;;;;;;;26.90;50.00;;;;;;5051934;28;19962;-74
2022/08/22 13:59:49;;;;;;;;;;;26.60;52.30;;;;;;5050900;28;19916;-74
2022/08/22 14:02:25;;;;;;;;;;;26.30;53.80;;;;;;5048932;28;19959;-74
2022/08/22 14:04:52;;;;;;;;;;;26.50;54.00;;;;;;5054772;28;19908;-74
2022/08/22 14:07:23;;;;;;;;;;;26.50;54.10;;;;;;5050846;28;19951;-73
2022/08/22 14:10:01;;;;;;;;;;;26.80;51.70;;;;;;5050981;28;20003;-74
2022/08/22 14:12:28;;;;;;;;;;;31.70;44.70;;;;;;5050609;28;20431;-75
2022/08/22 14:14:55;;;;;;;;;;;33.70;41.70;;;;;;5051271;28;20281;-75
2022/08/22 14:17:30;;;;;;;;;;;35.10;40.70;;;;;;5048002;28;20443;-73
2022/08/22 14:20:05;;;;;;;;;;;35.50;36.60;;;;;;5043826;28;20397;-75
2022/08/22 14:22:32;;;;;;;;;;;34.40;39.50;;;;;;5050289;28;19937;-74
2022/08/22 14:25:00;;;;;;;;;;;33.90;41.40;;;;;;5049611;28;19916;-74
2022/08/22 14:27:26;;;;;;;;;;;34.90;39.90;;;;;;5054747;28;19959;-75
2022/08/22 14:29:53;;;;;;;;;;;33.80;38.50;;;;;;5053809;28;19963;-74
2022/08/22 14:32:18;;;;;;;;;;;29.70;45.40;;;;;;5054367;28;19915;-74
2022/08/22 14:34:47;;;;;;;;;;;28.10;49.40;;;;;;5054536;28;19917;-74
2022/08/22 14:37:19;;;;;;;;;;;27.30;50.50;;;;;;5054773;28;19940;-74
2022/08/22 14:39:47;;;;;;;;;;;26.70;52.80;;;;;;5054580;28;19913;-74
2022/08/22 14:42:16;;;;;;;;;;;26.60;53.00;;;;;;5054476;28;20247;-73
2022/08/22 14:44:45;;;;;;;;;;;26.40;53.70;;;;;;5057093;28;19954;-74
2022/08/22 14:47:19;;;;;;;;;;;26.30;53.10;;;;;;5052356;28;19909;-75
2022/08/22 14:49:54;;;;;;;;;;;30.00;45.70;;;;;;5052615;28;19912;-72
2022/08/22 14:52:49;;;;;;;;;;;32.50;44.40;;;;;;5054193;28;19913;-74
2022/08/22 14:55:19;;;;;;;;;;;33.30;40.20;;;;;;5053572;28;19912;-74
2022/08/22 14:57:53;;;;;;;;;;;33.50;40.90;;;;;;5054255;28;19952;-73
2022/08/22 15:00:26;;;;;;;;;;;34.60;38.40;;;;;;5054006;28;19909;-74